createdAt,value
2019-04-16T00:00:25.278Z,101626.46
2019-04-16T00:02:56.164Z,101626.46
2019-04-16T00:05:27.839Z,101624.73
2019-04-16T00:08:02.102Z,101614.94
2019-04-16T00:10:47.731Z,101620.64
2019-04-16T00:13:34.761Z,101620.64
2019-04-16T00:16:04.013Z,101615.39
2019-04-16T00:18:33.225Z,101618.12
2019-04-16T00:21:20.215Z,101610.38
2019-04-16T00:23:56.749Z,101616.26
2019-04-16T00:26:26.860Z,101616.26
2019-04-16T00:28:56.704Z,101617.20
2019-04-16T00:31:25.933Z,101614.92
2019-04-16T00:33:55.129Z,101619.36
2019-04-16T00:36:24.288Z,101615.87
2019-04-16T00:38:54.128Z,101618.89
2019-04-16T00:41:24.819Z,101612.40
2019-04-16T00:43:54.034Z,101613.21
2019-04-16T00:46:23.578Z,101613.21
2019-04-16T00:48:52.754Z,101615.64
2019-04-16T00:51:21.952Z,101610.95
2019-04-16T00:53:51.146Z,101611.11
2019-04-16T00:56:20.362Z,101604.38
2019-04-16T00:58:52.218Z,101606.53
2019-04-16T01:01:20.508Z,101602.22
2019-04-16T01:03:50.027Z,101602.22
2019-04-16T01:06:19.218Z,101602.03
2019-04-16T01:08:54.820Z,101598.02
2019-04-16T01:11:19.289Z,101597.59
2019-04-16T01:13:48.469Z,101606.27
2019-04-16T01:16:17.692Z,101601.59
2019-04-16T01:18:46.971Z,101601.25
2019-04-16T01:21:16.162Z,101601.09
2019-04-16T01:23:48.419Z,101593.55
2019-04-16T01:26:16.241Z,101595.59
2019-04-16T01:29:03.688Z,101593.39
2019-04-16T01:31:36.310Z,101590.54
2019-04-16T01:34:18.157Z,101589.84
2019-04-16T01:37:00.422Z,101584.50
2019-04-16T01:39:34.036Z,101581.10
2019-04-16T01:42:03.355Z,101578.17
2019-04-16T01:44:32.545Z,101581.63
2019-04-16T01:47:04.164Z,101580.62
2019-04-16T01:49:32.606Z,101583.45
2019-04-16T01:52:01.826Z,101582.33
2019-04-16T01:54:31.018Z,101575.55
2019-04-16T01:57:00.881Z,101575.55
2019-04-16T01:59:30.383Z,101581.47
2019-04-16T02:01:59.660Z,101579.70
2019-04-16T02:04:28.847Z,101570.52
2019-04-16T02:06:58.023Z,101572.20
2019-04-16T02:09:27.211Z,101575.17
2019-04-16T02:11:56.400Z,101561.41
2019-04-16T02:14:25.581Z,101561.75
2019-04-16T02:16:56.100Z,101560.71
2019-04-16T02:19:25.863Z,101566.38
2019-04-16T02:21:55.047Z,101567.93
2019-04-16T02:24:24.252Z,101572.46
2019-04-16T02:26:54.847Z,101576.95
2019-04-16T02:29:24.392Z,101576.34
2019-04-16T02:31:53.585Z,101575.80
2019-04-16T02:34:22.780Z,101580.44
2019-04-16T02:36:51.973Z,101578.55
2019-04-16T02:39:25.752Z,101578.33
2019-04-16T02:41:56.811Z,101571.91
2019-04-16T02:44:22.942Z,101576.22
2019-04-16T02:46:52.106Z,101576.53
2019-04-16T02:49:24.463Z,101580.23
2019-04-16T02:51:56.681Z,101570.14
2019-04-16T02:54:34.395Z,101571.53
2019-04-16T02:57:25.785Z,101571.53
2019-04-16T02:59:53.101Z,101565.58
2019-04-16T03:02:35.989Z,101567.61
2019-04-16T03:05:14.304Z,101564.54
2019-04-16T03:07:43.468Z,101563.55
2019-04-16T03:10:13.906Z,101562.00
2019-04-16T03:12:43.193Z,101564.84
2019-04-16T03:15:14.131Z,101565.02
2019-04-16T03:17:44.967Z,101565.14
2019-04-16T03:20:16.550Z,101563.59
2019-04-16T03:22:45.775Z,101565.66
2019-04-16T03:25:15.432Z,101558.41
2019-04-16T03:27:44.625Z,101560.39
2019-04-16T03:30:13.966Z,101560.70
2019-04-16T03:32:49.989Z,101557.11
2019-04-16T03:35:19.277Z,101553.93
2019-04-16T03:37:48.500Z,101547.03
2019-04-16T03:40:18.887Z,101548.32
2019-04-16T03:42:48.575Z,101545.09
2019-04-16T03:45:17.787Z,101538.16
2019-04-16T03:47:50.989Z,101537.25
2019-04-16T03:50:17.915Z,101534.75
2019-04-16T03:52:47.332Z,101539.06
2019-04-16T03:55:16.522Z,101535.22
2019-04-16T03:57:45.715Z,101533.37
2019-04-16T04:00:15.313Z,101528.20
2019-04-16T04:02:44.580Z,101523.37
2019-04-16T04:05:13.775Z,101527.33
2019-04-16T04:07:44.165Z,101526.76
2019-04-16T04:10:14.117Z,101525.22
2019-04-16T04:12:45.867Z,101522.46
2019-04-16T04:15:14.189Z,101523.02
2019-04-16T04:17:43.377Z,101523.84
2019-04-16T04:20:14.656Z,101522.15
2019-04-16T04:22:43.429Z,101522.15
2019-04-16T04:25:12.757Z,101521.21
2019-04-16T04:27:43.560Z,101527.06
2019-04-16T04:30:13.648Z,101511.55
2019-04-16T04:32:42.829Z,101510.30
2019-04-16T04:35:12.093Z,101513.20
2019-04-16T04:38:00.887Z,101510.53
2019-04-16T04:40:50.844Z,101508.45
2019-04-16T04:43:19.108Z,101515.73
2019-04-16T04:45:48.302Z,101507.03
2019-04-16T04:48:17.476Z,101507.37
2019-04-16T04:50:46.742Z,101512.24
2019-04-16T04:53:19.171Z,101511.33
2019-04-16T04:55:46.791Z,101506.46
2019-04-16T04:58:16.010Z,101513.49
2019-04-16T05:00:45.191Z,101503.88
2019-04-16T05:03:16.856Z,101504.34
2019-04-16T05:05:47.740Z,101510.48
2019-04-16T05:08:16.937Z,101507.27
2019-04-16T05:10:58.315Z,101510.64
2019-04-16T05:13:17.027Z,101503.19
2019-04-16T05:15:46.234Z,101513.63
2019-04-16T05:18:15.396Z,101512.69
2019-04-16T05:20:46.963Z,101514.57
2019-04-16T05:23:15.519Z,101516.14
2019-04-16T05:25:44.692Z,101515.35
2019-04-16T05:28:13.875Z,101516.38
2019-04-16T05:30:43.056Z,101521.33
2019-04-16T05:33:12.254Z,101522.34
2019-04-16T05:35:42.395Z,101517.52
2019-04-16T05:38:11.629Z,101524.11
2019-04-16T05:41:12.232Z,101528.63
2019-04-16T05:43:30.865Z,101529.85
2019-04-16T05:46:00.062Z,101527.49
2019-04-16T05:48:29.274Z,101530.51
2019-04-16T05:50:59.992Z,101524.31
2019-04-16T05:53:29.340Z,101524.83
2019-04-16T05:56:02.966Z,101517.33
2019-04-16T05:58:32.159Z,101531.97
2019-04-16T06:01:05.742Z,101519.26
2019-04-16T06:03:35.004Z,101521.93
2019-04-16T06:06:04.200Z,101526.04
2019-04-16T06:08:33.412Z,101523.14
2019-04-16T06:11:02.581Z,101517.94
2019-04-16T06:13:36.370Z,101524.45
2019-04-16T06:16:10.175Z,101519.06
2019-04-16T06:18:46.605Z,101516.60
2019-04-16T06:21:32.572Z,101515.49
2019-04-16T06:24:19.497Z,101514.45
2019-04-16T06:26:53.035Z,101504.80
2019-04-16T06:29:39.786Z,101514.41
2019-04-16T06:32:11.856Z,101514.45
2019-04-16T06:35:01.227Z,101512.11
2019-04-16T06:37:34.865Z,101511.91
2019-04-16T06:40:12.883Z,101510.44
2019-04-16T06:42:44.034Z,101511.98
2019-04-16T06:45:36.496Z,101511.55
2019-04-16T06:48:03.705Z,101512.08
2019-04-16T06:50:39.602Z,101511.70
2019-04-16T06:53:15.870Z,101512.14
2019-04-16T06:55:46.688Z,101515.05
2019-04-16T06:58:18.362Z,101515.05
2019-04-16T07:01:05.869Z,101519.88
2019-04-16T07:03:48.951Z,101516.38
2019-04-16T07:06:22.826Z,101520.27
2019-04-16T07:08:58.226Z,101511.31
2019-04-16T07:11:29.077Z,101514.27
2019-04-16T07:13:58.275Z,101509.27
2019-04-16T07:16:28.924Z,101507.70
2019-04-16T07:18:58.248Z,101508.08
2019-04-16T07:21:27.464Z,101508.08
2019-04-16T07:23:58.413Z,101516.59
2019-04-16T07:26:27.698Z,101496.69
2019-04-16T07:29:07.173Z,101498.73
2019-04-16T07:31:56.206Z,101496.16
2019-04-16T07:34:35.468Z,101502.11
2019-04-16T07:37:11.764Z,101500.59
2019-04-16T07:39:51.551Z,101496.53
2019-04-16T07:42:28.416Z,101489.73
2019-04-16T07:45:01.965Z,101489.30
2019-04-16T07:47:45.145Z,101495.75
2019-04-16T07:50:21.830Z,101484.51
2019-04-16T07:52:53.045Z,101483.92
2019-04-16T07:55:27.382Z,101487.55
2019-04-16T07:57:56.990Z,101490.12
2019-04-16T08:00:26.182Z,101485.91
2019-04-16T08:02:55.484Z,101482.59
2019-04-16T08:05:27.690Z,101484.96
2019-04-16T08:07:55.573Z,101482.59
2019-04-16T08:10:24.823Z,101476.04
2019-04-16T08:12:56.974Z,101490.52
2019-04-16T08:15:26.549Z,101491.88
2019-04-16T08:18:13.589Z,101486.21
2019-04-16T08:20:42.785Z,101485.66
2019-04-16T08:23:25.287Z,101487.12
2019-04-16T08:26:02.570Z,101483.14
2019-04-16T08:28:26.138Z,101492.77
2019-04-16T08:30:55.355Z,101487.84
2019-04-16T08:33:28.242Z,101492.11
2019-04-16T08:35:55.483Z,101482.98
2019-04-16T08:38:26.101Z,101489.20
2019-04-16T08:40:55.529Z,101489.52
2019-04-16T08:43:26.649Z,101483.34
2019-04-16T08:45:55.617Z,101481.41
2019-04-16T08:48:42.648Z,101482.00
2019-04-16T08:51:11.833Z,101476.84
2019-04-16T08:53:43.712Z,101475.40
2019-04-16T08:56:12.122Z,101478.73
2019-04-16T08:58:41.393Z,101477.76
2019-04-16T09:01:12.240Z,101476.16
2019-04-16T09:03:41.430Z,101484.53
2019-04-16T09:06:13.524Z,101471.59
2019-04-16T09:08:43.147Z,101471.59
2019-04-16T09:11:23.188Z,101470.39
2019-04-16T09:13:48.093Z,101470.39
2019-04-16T09:16:15.748Z,101464.11
2019-04-16T09:18:52.422Z,101458.64
2019-04-16T09:21:21.631Z,101458.11
2019-04-16T09:24:09.569Z,101460.91
2019-04-16T09:26:43.747Z,101460.56
2019-04-16T09:29:29.810Z,101461.00
2019-04-16T09:32:06.649Z,101454.84
2019-04-16T09:34:53.369Z,101456.75
2019-04-16T09:37:28.730Z,101460.37
2019-04-16T09:40:16.068Z,101464.34
2019-04-16T09:42:36.522Z,101455.77
2019-04-16T09:45:10.163Z,101452.94
2019-04-16T09:47:39.289Z,101463.73
2019-04-16T09:50:11.068Z,101455.00
2019-04-16T09:52:39.552Z,101454.30
2019-04-16T09:55:08.890Z,101454.30
2019-04-16T09:57:38.082Z,101451.55
2019-04-16T10:00:09.860Z,101461.08
2019-04-16T10:02:39.052Z,101461.60
2019-04-16T10:05:08.779Z,101448.54
2019-04-16T10:07:40.413Z,101454.16
2019-04-16T10:10:09.190Z,101451.09
2019-04-16T10:12:38.353Z,101445.02
2019-04-16T10:15:08.364Z,101459.61
2019-04-16T10:17:37.580Z,101449.40
2019-04-16T10:20:08.150Z,101457.98
2019-04-16T10:22:37.365Z,101446.14
2019-04-16T10:25:08.640Z,101453.84
2019-04-16T10:27:39.459Z,101452.11
2019-04-16T10:30:14.037Z,101451.66
2019-04-16T10:32:43.255Z,101444.38
2019-04-16T10:35:12.890Z,101444.28
2019-04-16T10:37:42.082Z,101443.09
2019-04-16T10:40:13.064Z,101448.59
2019-04-16T10:43:02.070Z,101446.47
2019-04-16T10:45:42.799Z,101444.09
2019-04-16T10:48:19.271Z,101438.80
2019-04-16T10:51:05.000Z,101443.70
2019-04-16T10:53:41.717Z,101430.68
2019-04-16T10:56:22.144Z,101430.35
2019-04-16T10:59:17.087Z,101429.45
2019-04-16T11:02:11.716Z,101431.45
2019-04-16T11:04:45.157Z,101434.11
2019-04-16T11:07:20.851Z,101427.16
2019-04-16T11:09:50.149Z,101436.63
2019-04-16T11:12:19.839Z,101430.18
2019-04-16T11:14:49.142Z,101432.09
2019-04-16T11:17:20.086Z,101422.34
2019-04-16T11:19:52.562Z,101419.67
2019-04-16T11:22:20.163Z,101430.47
2019-04-16T11:24:49.360Z,101431.30
2019-04-16T11:27:18.671Z,101421.11
2019-04-16T11:29:47.905Z,101424.09
2019-04-16T11:32:24.747Z,101408.80
2019-04-16T11:34:53.925Z,101407.23
2019-04-16T11:37:23.178Z,101414.34
2019-04-16T11:39:52.391Z,101408.75
2019-04-16T11:42:21.847Z,101415.03
2019-04-16T11:44:51.039Z,101418.89
2019-04-16T11:47:20.226Z,101417.15
2019-04-16T11:49:49.482Z,101406.20
2019-04-16T11:52:18.812Z,101411.89
2019-04-16T11:54:47.948Z,101408.42
2019-04-16T11:57:17.178Z,101418.28
2019-04-16T11:59:46.339Z,101418.55
2019-04-16T12:02:33.389Z,101407.83
2019-04-16T12:05:09.955Z,101420.47
2019-04-16T12:07:46.908Z,101413.66
2019-04-16T12:10:32.196Z,101407.51
2019-04-16T12:13:03.969Z,101407.91
2019-04-16T12:15:47.192Z,101412.89
2019-04-16T12:18:24.059Z,101420.25
2019-04-16T12:20:54.896Z,101407.41
2019-04-16T12:23:28.576Z,101423.70
2019-04-16T12:26:10.540Z,101409.07
2019-04-16T12:28:50.362Z,101402.68
2019-04-16T12:31:54.290Z,101411.45
2019-04-16T12:34:40.211Z,101412.70
2019-04-16T12:37:13.797Z,101404.59
2019-04-16T12:39:50.867Z,101402.06
2019-04-16T12:42:30.504Z,101401.28
2019-04-16T12:45:01.624Z,101404.83
2019-04-16T12:47:32.679Z,101406.55
2019-04-16T12:50:05.958Z,101397.55
2019-04-16T12:52:45.877Z,101400.53
2019-04-16T12:55:32.526Z,101404.41
2019-04-16T12:58:09.260Z,101398.68
2019-04-16T13:00:42.568Z,101400.99
2019-04-16T13:03:22.100Z,101393.25
2019-04-16T13:09:18.436Z,101404.89
2019-04-16T13:11:51.822Z,101395.29
2019-04-16T13:14:31.282Z,101387.50
2019-04-16T13:17:15.102Z,101399.31
2019-04-16T13:19:52.440Z,101394.89
2019-04-16T13:22:31.936Z,101387.20
2019-04-16T13:25:08.566Z,101389.16
2019-04-16T13:27:39.393Z,101385.14
2019-04-16T13:30:11.670Z,101385.55
2019-04-16T13:32:40.854Z,101371.25
2019-04-16T13:35:10.130Z,101395.66
2019-04-16T13:37:39.318Z,101380.47
2019-04-16T13:40:13.595Z,101375.16
2019-04-16T13:42:42.858Z,101375.08
2019-04-16T13:45:21.988Z,101385.81
2019-04-16T13:47:54.645Z,101384.25
2019-04-16T13:50:25.792Z,101392.13
2019-04-16T13:53:05.547Z,101379.05
2019-04-16T13:55:49.312Z,101377.90
2019-04-16T13:58:34.267Z,101374.44
2019-04-16T14:01:10.988Z,101371.43
2019-04-16T14:03:40.159Z,101378.75
2019-04-16T14:06:16.138Z,101374.25
2019-04-16T14:08:45.329Z,101380.86
2019-04-16T14:11:16.561Z,101374.84
2019-04-16T14:13:50.086Z,101363.50
2019-04-16T14:16:17.419Z,101358.39
2019-04-16T14:18:46.599Z,101380.00
2019-04-16T14:21:15.782Z,101360.50
2019-04-16T14:23:51.649Z,101363.10
2019-04-16T14:26:20.858Z,101356.58
2019-04-16T14:28:52.394Z,101356.47
2019-04-16T14:31:22.610Z,101348.16
2019-04-16T14:33:53.406Z,101356.53
2019-04-16T14:36:22.594Z,101358.06
2019-04-16T14:39:09.876Z,101349.66
2019-04-16T14:41:39.132Z,101352.47
2019-04-16T14:44:13.004Z,101348.64
2019-04-16T14:46:42.180Z,101350.20
2019-04-16T14:49:11.390Z,101355.56
2019-04-16T14:51:40.569Z,101348.19
2019-04-16T14:54:14.086Z,101360.17
2019-04-16T14:56:47.620Z,101353.13
2019-04-16T14:59:35.454Z,101352.25
2019-04-16T15:02:06.291Z,101340.67
2019-04-16T15:04:42.917Z,101345.53
2019-04-16T15:07:12.572Z,101344.89
2019-04-16T15:09:49.255Z,101351.23
2019-04-16T15:12:34.743Z,101347.34
2019-04-16T15:15:20.827Z,101342.83
2019-04-16T15:17:51.668Z,101343.25
2019-04-16T15:20:25.054Z,101347.03
2019-04-16T15:23:12.118Z,101337.47
2019-04-16T15:25:54.911Z,101337.41
2019-04-16T15:28:25.745Z,101342.30
2019-04-16T15:31:01.570Z,101339.08
2019-04-16T15:33:47.309Z,101339.66
2019-04-16T15:36:19.470Z,101338.48
2019-04-16T15:38:58.963Z,101339.51
2019-04-16T15:41:28.851Z,101342.01
2019-04-16T15:44:15.875Z,101335.84
2019-04-16T15:46:49.932Z,101341.32
2019-04-16T15:49:24.347Z,101342.61
2019-04-16T15:52:00.893Z,101347.21
2019-04-16T15:54:31.745Z,101340.08
2019-04-16T15:57:18.493Z,101348.43
2019-04-16T15:59:50.321Z,101340.30
2019-04-16T16:02:21.259Z,101345.08
2019-04-16T16:04:55.068Z,101346.67
2019-04-16T16:07:25.149Z,101340.37
2019-04-16T16:10:01.877Z,101344.93
2019-04-16T16:12:31.084Z,101350.42
2019-04-16T16:15:00.238Z,101350.84
2019-04-16T16:17:29.428Z,101350.95
2019-04-16T16:19:58.623Z,101349.81
2019-04-16T16:22:27.852Z,101349.59
2019-04-16T16:24:57.322Z,101356.77
2019-04-16T16:27:27.476Z,101359.80
2019-04-16T16:29:56.668Z,101353.94
2019-04-16T16:32:25.926Z,101354.83
2019-04-16T16:34:55.556Z,101352.59
2019-04-16T16:37:24.821Z,101359.17
2019-04-16T16:39:54.017Z,101357.07
2019-04-16T16:42:23.243Z,101358.64
2019-04-16T16:44:52.482Z,101361.53
2019-04-16T16:47:23.315Z,101363.84
2019-04-16T16:49:52.763Z,101364.45
2019-04-16T16:52:23.744Z,101365.30
2019-04-16T16:54:54.564Z,101365.41
2019-04-16T16:57:34.022Z,101370.47
2019-04-16T17:00:10.806Z,101370.57
2019-04-16T17:02:41.665Z,101366.46
2019-04-16T17:05:12.558Z,101370.13
2019-04-16T17:07:41.753Z,101374.33
2019-04-16T17:10:11.293Z,101379.51
2019-04-16T17:12:40.487Z,101378.50
2019-04-16T17:15:09.762Z,101380.05
2019-04-16T17:17:38.961Z,101386.08
2019-04-16T17:20:08.223Z,101386.94
2019-04-16T17:22:40.603Z,101388.78
2019-04-16T17:25:11.692Z,101388.52
2019-04-16T17:27:51.275Z,101395.70
2019-04-16T17:30:11.330Z,101396.20
2019-04-16T17:32:42.228Z,101401.41
2019-04-16T17:35:15.434Z,101407.30
2019-04-16T17:37:43.662Z,101406.04
2019-04-16T17:40:17.005Z,101407.03
2019-04-16T17:42:47.966Z,101406.64
2019-04-16T17:45:25.007Z,101414.30
2019-04-16T17:48:05.056Z,101411.30
2019-04-16T17:50:39.354Z,101407.84
2019-04-16T17:53:18.272Z,101411.14
2019-04-16T17:56:05.646Z,101414.61
2019-04-16T17:58:36.538Z,101415.20
2019-04-16T18:01:11.073Z,101417.16
2019-04-16T18:03:42.057Z,101422.93
2019-04-16T18:06:15.355Z,101415.80
2019-04-16T18:09:04.508Z,101427.59
2019-04-16T18:11:51.587Z,101425.11
2019-04-16T18:14:38.519Z,101427.82
2019-04-16T18:17:20.871Z,101435.75
2019-04-16T18:20:00.706Z,101438.59
2019-04-16T18:22:47.564Z,101445.82
2019-04-16T18:25:21.216Z,101444.96
2019-04-16T18:28:04.857Z,101451.83
2019-04-16T18:30:38.169Z,101451.92
2019-04-16T18:33:09.094Z,101461.50
2019-04-16T18:35:42.497Z,101456.52
2019-04-16T18:38:13.348Z,101463.68
2019-04-16T18:40:49.935Z,101467.34
2019-04-16T18:43:36.777Z,101470.73
2019-04-16T18:46:08.481Z,101483.61
2019-04-16T18:48:44.800Z,101483.05
2019-04-16T18:51:13.307Z,101481.45
2019-04-16T18:53:43.374Z,101488.89
2019-04-16T18:56:13.293Z,101488.33
2019-04-16T18:58:42.476Z,101491.43
2019-04-16T19:01:13.294Z,101499.38
2019-04-16T19:03:42.486Z,101504.54
2019-04-16T19:06:11.678Z,101499.62
2019-04-16T19:08:42.390Z,101499.35
2019-04-16T19:11:11.769Z,101505.14
2019-04-16T19:13:40.962Z,101510.00
2019-04-16T19:16:10.145Z,101508.15
2019-04-16T19:18:39.342Z,101509.59
2019-04-16T19:21:08.619Z,101516.64
2019-04-16T19:23:37.813Z,101518.48
2019-04-16T19:26:07.362Z,101519.16
2019-04-16T19:28:39.585Z,101524.39
2019-04-16T19:31:07.511Z,101526.42
2019-04-16T19:33:38.464Z,101533.77
2019-04-16T19:36:07.822Z,101538.59
2019-04-16T19:38:39.330Z,101549.59
2019-04-16T19:41:08.040Z,101551.75
2019-04-16T19:43:37.281Z,101554.55
2019-04-16T19:46:06.763Z,101559.06
2019-04-16T19:48:36.474Z,101561.39
2019-04-16T19:51:07.244Z,101566.98
2019-04-16T19:53:36.845Z,101565.45
2019-04-16T19:56:06.183Z,101566.63
2019-04-16T19:58:36.502Z,101564.47
2019-04-16T20:01:06.242Z,101572.80
2019-04-16T20:03:35.638Z,101567.75
2019-04-16T20:06:05.130Z,101563.14
2019-04-16T20:08:40.468Z,101557.42
2019-04-16T20:11:09.647Z,101562.55
2019-04-16T20:13:39.846Z,101558.31
2019-04-16T20:16:09.060Z,101561.78
2019-04-16T20:18:50.243Z,101571.25
2019-04-16T20:21:09.134Z,101571.42
2019-04-16T20:23:38.324Z,101564.08
2019-04-16T20:26:07.522Z,101572.68
2019-04-16T20:28:36.732Z,101579.44
2019-04-16T20:31:05.933Z,101581.56
2019-04-16T20:33:35.150Z,101578.75
2019-04-16T20:36:04.414Z,101578.58
2019-04-16T20:38:33.623Z,101583.20
2019-04-16T20:41:02.888Z,101587.60
2019-04-16T20:43:32.092Z,101584.72
2019-04-16T20:46:01.287Z,101588.48
2019-04-16T20:48:30.470Z,101591.16
2019-04-16T20:51:00.233Z,101587.75
2019-04-16T20:53:29.519Z,101585.63
2019-04-16T20:55:58.720Z,101584.06
2019-04-16T20:58:31.249Z,101592.46
2019-04-16T21:01:00.538Z,101591.28
2019-04-16T21:03:31.291Z,101595.59
2019-04-16T21:06:01.062Z,101598.14
2019-04-16T21:08:30.279Z,101599.06
2019-04-16T21:11:17.773Z,101599.46
2019-04-16T21:13:50.125Z,101602.53
2019-04-16T21:16:17.867Z,101600.20
2019-04-16T21:18:47.065Z,101599.42
2019-04-16T21:21:16.251Z,101604.38
2019-04-16T21:23:45.443Z,101610.34
2019-04-16T21:26:16.546Z,101612.72
2019-04-16T21:28:58.231Z,101615.41
2019-04-16T21:31:37.256Z,101617.75
2019-04-16T21:34:24.938Z,101622.16
2019-04-16T21:37:12.149Z,101623.75
2019-04-16T21:39:51.294Z,101623.22
2019-04-16T21:42:19.550Z,101629.02
2019-04-16T21:44:48.744Z,101626.89
2019-04-16T21:47:23.223Z,101632.69
2019-04-16T21:50:07.655Z,101636.93
2019-04-16T21:52:36.844Z,101635.88
2019-04-16T21:55:08.325Z,101637.41
2019-04-16T21:57:37.546Z,101640.84
2019-04-16T22:00:10.374Z,101635.36
2019-04-16T22:02:41.170Z,101632.69
2019-04-16T22:05:10.480Z,101630.61
2019-04-16T22:07:39.660Z,101633.50
2019-04-16T22:10:09.013Z,101635.73
2019-04-16T22:12:38.181Z,101638.27
2019-04-16T22:15:07.707Z,101631.40
2019-04-16T22:17:36.928Z,101635.75
2019-04-16T22:20:07.218Z,101636.08
2019-04-16T22:22:36.410Z,101636.32
2019-04-16T22:25:06.523Z,101637.44
2019-04-16T22:27:36.725Z,101639.02
2019-04-16T22:30:07.184Z,101635.45
2019-04-16T22:32:36.415Z,101639.50
2019-04-16T22:35:06.570Z,101643.25
2019-04-16T22:37:35.700Z,101640.85
2019-04-16T22:40:22.511Z,101639.64
2019-04-16T22:42:49.384Z,101639.73
2019-04-16T22:45:34.893Z,101638.56
2019-04-16T22:48:04.071Z,101639.66
2019-04-16T22:50:34.798Z,101643.18
2019-04-16T22:53:04.117Z,101641.13
2019-04-16T22:55:33.322Z,101636.91
2019-04-16T22:58:04.529Z,101638.89
2019-04-16T23:00:44.111Z,101638.89
2019-04-16T23:03:12.007Z,101649.41
2019-04-16T23:05:41.179Z,101651.47
2019-04-16T23:08:12.794Z,101649.26
2019-04-16T23:10:41.214Z,101650.75
2019-04-16T23:13:10.406Z,101658.32
2019-04-16T23:15:40.249Z,101663.45
2019-04-16T23:18:27.355Z,101652.86
2019-04-16T23:20:56.559Z,101659.48
2019-04-16T23:23:25.737Z,101664.65
2019-04-16T23:25:59.044Z,101665.28
2019-04-16T23:28:25.788Z,101661.02
2019-04-16T23:30:55.016Z,101663.30
2019-04-16T23:33:24.200Z,101660.83
2019-04-16T23:35:53.370Z,101661.31
2019-04-16T23:38:22.550Z,101663.33
2019-04-16T23:40:51.735Z,101665.94
2019-04-16T23:43:28.797Z,101666.95
2019-04-16T23:46:04.997Z,101659.84
2019-04-16T23:48:37.708Z,101663.55
2019-04-16T23:51:14.725Z,101659.43
2019-04-16T23:53:45.550Z,101661.16
2019-04-16T23:56:17.848Z,101659.59
2019-04-16T23:58:48.903Z,101654.34
